Time;durP1;ratioP1;P1;durP2;ratioP2;P2;SDS_P1;SDS_P2;PMS_P1;PMS_P2;Temp;Humidity;BMP_temperature;BMP_pressure;BME280_temperature;BME280_humidity;BME280_pressure;Samples;Min_cycle;Max_cycle;Signal;HPM_P1;HPM_P2
2022/02/22 00:01:28;;;;;;;5.40;1.92;;;;;;;2.71;85.87;95167.72;5096137;28;20039;-73
2022/02/22 00:03:54;;;;;;;7.72;2.00;;;;;;;2.65;85.31;95162.66;5101414;28;20047;-73
2022/02/22 00:06:19;;;;;;;8.63;1.85;;;;;;;2.62;85.12;95170.91;5108081;28;20497;-73
2022/02/22 00:08:45;;;;;;;4.88;1.95;;;;;;;2.63;84.25;95175.06;5088516;28;20040;-73
2022/02/22 00:11:10;;;;;;;4.78;1.60;;;;;;;2.59;84.93;95175.50;5088998;28;20047;-73
2022/02/22 00:13:36;;;;;;;8.95;1.50;;;;;;;2.57;85.33;95172.38;5097558;28;20173;-73
2022/02/22 00:16:02;;;;;;;4.28;1.30;;;;;;;2.52;85.66;95169.66;5107855;28;20480;-73
2022/02/22 00:18:28;;;;;;;9.57;1.92;;;;;;;2.52;85.21;95185.22;5092349;28;20046;-74
2022/02/22 00:20:54;;;;;;;6.90;1.92;;;;;;;2.54;85.26;95178.03;5089317;28;20033;-72
2022/02/22 00:23:20;;;;;;;6.43;1.65;;;;;;;2.55;85.71;95174.38;5099900;28;20032;-73
2022/02/22 00:25:46;;;;;;;4.88;1.50;;;;;;;2.46;86.23;95175.75;5093400;28;20040;-73
2022/02/22 00:28:12;;;;;;;8.70;1.63;;;;;;;2.43;85.95;95176.22;5088953;28;20074;-73
2022/02/22 00:30:37;;;;;;;4.15;1.60;;;;;;;2.35;86.55;95176.53;5095185;28;20040;-73
2022/02/22 00:33:03;;;;;;;4.95;1.48;;;;;;;2.28;87.38;95183.66;5102302;28;20054;-73
2022/02/22 00:35:29;;;;;;;6.07;1.63;;;;;;;2.25;88.22;95174.50;5095075;28;20059;-73
2022/02/22 00:37:54;;;;;;;4.75;1.63;;;;;;;2.22;88.94;95183.50;5101805;28;20058;-72
2022/02/22 00:40:20;;;;;;;7.28;1.77;;;;;;;2.09;89.74;95191.53;5100678;28;20048;-73
2022/02/22 00:42:45;;;;;;;4.93;1.30;;;;;;;2.04;90.71;95178.41;5099310;28;20416;-74
2022/02/22 00:45:12;;;;;;;3.75;1.60;;;;;;;2.01;90.25;95184.06;5103681;28;20047;-73
2022/02/22 00:47:38;;;;;;;5.97;1.60;;;;;;;1.99;90.86;95186.88;5097591;28;20801;-73
2022/02/22 00:50:05;;;;;;;5.85;1.45;;;;;;;2.14;91.03;95180.47;5100508;28;20111;-73
2022/02/22 00:52:31;;;;;;;6.70;1.92;;;;;;;2.04;90.73;95183.59;5106380;28;20035;-73
2022/02/22 00:54:57;;;;;;;7.35;1.63;;;;;;;1.99;90.90;95189.47;5099986;28;20446;-74
2022/02/22 00:57:22;;;;;;;3.53;1.40;;;;;;;2.04;91.69;95193.97;5092256;28;20043;-73
2022/02/22 00:59:48;;;;;;;7.80;1.65;;;;;;;2.13;91.44;95197.84;5107366;28;20048;-72
2022/02/22 01:02:13;;;;;;;4.20;1.95;;;;;;;2.15;90.83;95211.38;5088339;28;20047;-73
2022/02/22 01:04:39;;;;;;;7.60;1.75;;;;;;;2.17;90.99;95198.19;5088377;28;20040;-73
2022/02/22 01:07:05;;;;;;;5.85;1.80;;;;;;;2.25;90.83;95213.44;5101897;28;20051;-73
2022/02/22 01:09:31;;;;;;;4.60;1.63;;;;;;;2.18;90.41;95212.75;5100072;28;20394;-74
2022/02/22 01:11:57;;;;;;;4.97;1.55;;;;;;;2.22;90.66;95211.28;5103497;28;20040;-73
2022/02/22 01:14:23;;;;;;;4.55;1.48;;;;;;;2.22;91.26;95211.28;5088536;28;20070;-73
2022/02/22 01:16:48;;;;;;;5.10;1.80;;;;;;;2.21;91.05;95210.50;5088372;28;20497;-73
2022/02/22 01:19:14;;;;;;;8.65;1.80;;;;;;;2.24;90.85;95204.88;5104308;28;20044;-74
2022/02/22 01:21:40;;;;;;;5.78;2.00;;;;;;;2.30;89.62;95194.59;5096645;28;20084;-74
2022/02/22 01:24:07;;;;;;;4.32;1.52;;;;;;;2.32;89.54;95195.94;5092258;28;20047;-73
2022/02/22 01:26:33;;;;;;;7.35;1.60;;;;;;;2.30;89.61;95198.00;5091738;28;20044;-73
2022/02/22 01:28:59;;;;;;;4.72;1.90;;;;;;;2.33;89.21;95192.34;5098888;28;20043;-73
2022/02/22 01:31:26;;;;;;;7.03;1.83;;;;;;;2.30;89.47;95198.00;5106236;28;20448;-74
2022/02/22 01:33:55;;;;;;;21.42;1.63;;;;;;;2.34;88.55;95195.72;5107356;28;20044;-75
2022/02/22 01:36:25;;;;;;;6.18;2.00;;;;;;;2.31;88.12;95193.56;5105149;28;20043;-74
2022/02/22 01:38:53;;;;;;;9.23;1.80;;;;;;;2.40;88.07;95197.44;5109065;28;20481;-74
2022/02/22 01:41:20;;;;;;;3.67;1.33;;;;;;;2.33;88.14;95205.34;5091264;28;20054;-74
2022/02/22 01:43:46;;;;;;;5.22;1.58;;;;;;;2.40;87.82;95205.22;5093208;28;20047;-73
2022/02/22 01:46:12;;;;;;;9.38;1.90;;;;;;;2.45;87.74;95205.34;5103814;28;20052;-74
2022/02/22 01:48:38;;;;;;;5.65;1.80;;;;;;;2.42;87.84;95205.78;5110693;28;20049;-74
2022/02/22 01:51:04;;;;;;;3.15;1.35;;;;;;;2.50;86.65;95208.06;5103345;28;20039;-74
2022/02/22 01:53:30;;;;;;;3.88;1.63;;;;;;;2.45;86.99;95210.53;5108491;28;20390;-74
2022/02/22 01:55:55;;;;;;;4.55;1.50;;;;;;;2.50;87.36;95212.44;5106711;28;20034;-73
2022/02/22 01:58:21;;;;;;;4.95;1.70;;;;;;;2.41;87.98;95217.19;5111694;28;20067;-73
2022/02/22 02:00:47;;;;;;;9.73;2.50;;;;;;;2.42;88.33;95227.34;5106740;28;20040;-73
2022/02/22 02:03:14;;;;;;;9.55;2.03;;;;;;;2.46;87.79;95222.50;5111547;28;20055;-74
2022/02/22 02:05:39;;;;;;;3.65;1.60;;;;;;;2.46;87.22;95232.91;5106192;28;20055;-73
2022/02/22 02:08:05;;;;;;;5.65;1.80;;;;;;;2.51;87.76;95220.00;5107489;28;20044;-73
2022/02/22 02:10:30;;;;;;;6.35;1.55;;;;;;;2.54;87.63;95224.78;5093303;28;20101;-75
2022/02/22 02:12:56;;;;;;;8.63;2.00;;;;;;;2.55;87.13;95231.53;5107677;28;20047;-74
2022/02/22 02:15:22;;;;;;;8.38;1.70;;;;;;;2.48;88.26;95230.84;5099127;28;20040;-74
2022/02/22 02:17:47;;;;;;;7.93;1.58;;;;;;;2.59;87.42;95237.88;5098735;28;20495;-74
2022/02/22 02:20:13;;;;;;;10.43;1.90;;;;;;;2.60;87.67;95226.47;5109947;28;20036;-74
2022/02/22 02:22:40;;;;;;;9.25;2.22;;;;;;;2.64;87.55;95234.59;5110291;28;20035;-74
2022/02/22 02:25:06;;;;;;;14.52;2.40;;;;;;;2.67;87.21;95243.75;5109373;28;20133;-74
2022/02/22 02:27:32;;;;;;;6.35;2.00;;;;;;;2.68;87.00;95238.31;5108667;28;20051;-74
2022/02/22 02:29:59;;;;;;;5.05;1.70;;;;;;;2.58;87.73;95257.06;5109671;27;20044;-74
2022/02/22 02:32:29;;;;;;;9.60;2.20;;;;;;;2.65;87.21;95256.19;5106906;28;20043;-74
2022/02/22 02:34:55;;;;;;;6.30;2.00;;;;;;;2.63;87.33;95253.00;5106320;28;20032;-74
2022/02/22 02:37:20;;;;;;;11.63;2.25;;;;;;;2.74;86.43;95254.81;5090929;28;20047;-74
2022/02/22 02:39:46;;;;;;;9.32;1.95;;;;;;;2.63;87.14;95247.81;5091904;28;20051;-74
2022/02/22 02:42:12;;;;;;;6.43;1.90;;;;;;;2.67;86.56;95264.53;5093523;28;20040;-74
2022/02/22 02:44:37;;;;;;;7.00;2.00;;;;;;;2.72;86.56;95262.06;5092709;28;20043;-73
2022/02/22 02:47:06;;;;;;;6.32;2.15;;;;;;;2.70;86.77;95259.69;5098882;28;20075;-74
2022/02/22 02:49:32;;;;;;;5.93;2.03;;;;;;;2.71;86.50;95263.84;5090683;28;20181;-74
2022/02/22 02:51:58;;;;;;;4.50;1.88;;;;;;;2.68;86.88;95268.72;5096427;28;20032;-74
2022/02/22 02:54:23;;;;;;;4.80;1.38;;;;;;;2.71;87.15;95276.06;5107520;28;20047;-74
2022/02/22 02:56:49;;;;;;;7.63;2.38;;;;;;;2.70;87.09;95290.06;5097451;28;20488;-74
2022/02/22 02:59:14;;;;;;;6.40;1.85;;;;;;;2.68;87.66;95292.09;5109445;28;20055;-74
2022/02/22 03:01:42;;;;;;;10.15;1.90;;;;;;;2.68;87.78;95294.69;5097506;27;20485;-74
2022/02/22 03:04:08;;;;;;;5.30;1.67;;;;;;;2.69;88.34;95283.31;5106349;28;20046;-74
2022/02/22 03:06:33;;;;;;;9.38;1.90;;;;;;;2.55;88.68;95298.28;5104242;28;20501;-74
2022/02/22 03:09:00;;;;;;;7.13;1.85;;;;;;;2.56;88.69;95305.88;5105390;28;20044;-74
2022/02/22 03:11:26;;;;;;;5.78;1.92;;;;;;;2.51;88.66;95310.94;5101497;28;20489;-74
2022/02/22 03:13:52;;;;;;;7.22;2.22;;;;;;;2.49;89.79;95320.75;5099756;28;20051;-74
2022/02/22 03:16:17;;;;;;;12.15;2.30;;;;;;;2.43;88.96;95316.47;5089759;28;20421;-74
2022/02/22 03:18:45;;;;;;;10.25;2.20;;;;;;;2.55;89.03;95313.88;5090238;28;20512;-73
2022/02/22 03:21:10;;;;;;;6.07;2.20;;;;;;;2.51;89.21;95318.72;5093454;28;20570;-73
2022/02/22 03:23:36;;;;;;;7.43;1.95;;;;;;;2.43;89.65;95322.44;5096953;28;20043;-73
2022/02/22 03:26:02;;;;;;;13.55;2.17;;;;;;;2.53;88.99;95316.72;5106038;28;20043;-74
2022/02/22 03:28:27;;;;;;;5.40;1.85;;;;;;;2.55;88.58;95319.84;5109549;28;20047;-74
2022/02/22 03:30:54;;;;;;;6.30;2.13;;;;;;;2.55;88.43;95319.84;5094323;28;20046;-74
2022/02/22 03:33:20;;;;;;;10.25;2.30;;;;;;;2.53;87.82;95337.50;5094713;28;20048;-73
2022/02/22 03:35:46;;;;;;;8.00;2.10;;;;;;;2.56;88.29;95334.44;5092731;28;20089;-73
2022/02/22 03:38:11;;;;;;;7.55;2.20;;;;;;;2.50;87.79;95342.31;5110117;28;20047;-73
2022/02/22 03:40:37;;;;;;;5.15;1.73;;;;;;;2.56;87.23;95342.22;5107910;28;20067;-73
2022/02/22 03:43:03;;;;;;;2.72;1.48;;;;;;;2.54;86.90;95341.69;5095749;28;20532;-73
2022/02/22 03:45:29;;;;;;;5.75;2.25;;;;;;;2.53;86.88;95353.06;5094768;28;20036;-73
2022/02/22 03:47:55;;;;;;;6.70;2.53;;;;;;;2.47;86.87;95342.78;5089417;28;20127;-73
2022/02/22 03:50:21;;;;;;;7.22;2.00;;;;;;;2.57;85.38;95376.78;5096739;28;20096;-72
2022/02/22 03:52:47;;;;;;;9.30;2.10;;;;;;;2.57;85.72;95375.00;5104123;28;20875;-73
2022/02/22 03:55:13;;;;;;;9.98;1.92;;;;;;;2.48;86.91;95376.31;5095335;28;20130;-73
2022/02/22 03:57:39;;;;;;;6.50;1.65;;;;;;;2.53;85.78;95389.44;5095347;28;20055;-73
2022/02/22 04:00:09;;;;;;;4.03;1.73;;;;;;;2.54;85.24;95396.22;5089214;28;20040;-73
2022/02/22 04:02:35;;;;;;;8.82;2.08;;;;;;;2.47;85.98;95405.91;5104979;28;20031;-73
2022/02/22 04:05:05;;;;;;;8.50;1.92;;;;;;;2.51;85.32;95417.44;5095025;28;20599;-74
2022/02/22 04:07:35;;;;;;;6.20;1.80;;;;;;;2.52;85.41;95426.81;5098996;28;20051;-73
2022/02/22 04:10:01;;;;;;;11.77;2.75;;;;;;;2.46;85.34;95425.09;5089042;28;20083;-73
2022/02/22 04:12:26;;;;;;;7.65;1.83;;;;;;;2.46;83.43;95419.91;5101490;28;20527;-73
2022/02/22 04:14:52;;;;;;;12.40;2.30;;;;;;;2.50;82.99;95428.84;5090942;28;20052;-73
2022/02/22 04:17:17;;;;;;;15.02;2.20;;;;;;;2.38;83.32;95433.97;5089303;28;20608;-73
2022/02/22 04:19:43;;;;;;;13.88;2.45;;;;;;;2.32;83.99;95441.88;5097227;28;20040;-73
2022/02/22 04:22:08;;;;;;;8.98;1.90;;;;;;;2.41;83.54;95448.34;5102185;28;20044;-73
2022/02/22 04:24:36;;;;;;;6.90;1.90;;;;;;;2.29;84.10;95453.47;5090340;28;20448;-73
2022/02/22 04:27:05;;;;;;;16.33;2.60;;;;;;;2.47;84.23;95446.66;5108084;28;20570;-74
2022/02/22 04:29:31;;;;;;;13.05;2.75;;;;;;;2.43;85.01;95454.13;5106523;28;20054;-74
2022/02/22 04:31:57;;;;;;;10.15;2.08;;;;;;;2.48;85.28;95459.44;5092474;28;20513;-73
2022/02/22 04:34:23;;;;;;;3.90;1.70;;;;;;;2.46;85.24;95471.06;5090134;28;20079;-74
2022/02/22 04:36:49;;;;;;;8.65;2.67;;;;;;;2.39;84.96;95484.13;5088829;28;20067;-74
2022/02/22 04:39:15;;;;;;;9.68;1.85;;;;;;;2.31;85.63;95490.41;5087845;28;20512;-75
2022/02/22 04:41:41;;;;;;;6.30;1.85;;;;;;;2.31;85.68;95510.38;5088837;28;20524;-74
2022/02/22 04:44:06;;;;;;;5.63;2.08;;;;;;;2.33;85.95;95505.75;5101621;28;20044;-75
2022/02/22 04:46:32;;;;;;;7.72;2.55;;;;;;;2.28;86.64;95500.44;5093888;28;20619;-74
2022/02/22 04:48:57;;;;;;;10.73;2.03;;;;;;;2.32;85.95;95491.22;5105863;28;20050;-74
2022/02/22 04:51:23;;;;;;;8.50;1.73;;;;;;;2.27;85.90;95498.84;5104707;28;20055;-75
2022/02/22 04:53:48;;;;;;;6.97;2.10;;;;;;;2.25;85.67;95502.44;5105179;28;20039;-74
2022/02/22 04:56:14;;;;;;;9.10;1.75;;;;;;;2.28;84.98;95510.81;5090980;28;20036;-73
2022/02/22 04:58:39;;;;;;;9.13;2.15;;;;;;;2.17;85.27;95512.31;5092797;28;20040;-74
2022/02/22 05:01:05;;;;;;;10.88;1.90;;;;;;;2.21;84.29;95522.09;5092647;28;20043;-72
2022/02/22 05:03:30;;;;;;;13.65;2.10;;;;;;;2.29;85.04;95517.63;5098976;28;20602;-73
2022/02/22 05:05:56;;;;;;;8.15;2.25;;;;;;;2.24;84.93;95519.06;5100020;28;20051;-74
2022/02/22 05:08:21;;;;;;;7.93;2.35;;;;;;;2.17;84.85;95520.13;5103881;28;20050;-73
2022/02/22 05:10:47;;;;;;;7.38;2.00;;;;;;;2.20;84.19;95519.72;5109854;28;20039;-73
2022/02/22 05:13:13;;;;;;;8.90;1.83;;;;;;;2.23;83.74;95530.44;5093277;28;20048;-74
2022/02/22 05:15:39;;;;;;;6.55;1.70;;;;;;;2.22;84.57;95534.03;5102468;28;20040;-74
2022/02/22 05:18:04;;;;;;;8.73;2.03;;;;;;;2.19;84.72;95529.28;5098160;28;20486;-73
2022/02/22 05:20:31;;;;;;;8.57;2.00;;;;;;;2.15;84.50;95543.69;5099682;28;20040;-73
2022/02/22 05:22:59;;;;;;;13.05;2.30;;;;;;;2.27;85.72;95546.41;5092066;28;20052;-74
2022/02/22 05:25:25;;;;;;;9.70;1.67;;;;;;;2.27;86.07;95561.97;5093462;28;20048;-73
2022/02/22 05:27:50;;;;;;;7.82;2.15;;;;;;;1.97;90.02;95577.41;5091866;28;20522;-74
2022/02/22 05:30:17;;;;;;;9.10;1.52;;;;;;;1.79;92.58;95591.94;5092193;28;20036;-73
2022/02/22 05:32:43;;;;;;;8.25;1.60;;;;;;;1.56;93.97;95588.09;5098821;28;20047;-74
2022/02/22 05:35:10;;;;;;;13.75;1.75;;;;;;;1.40;96.12;95587.84;5098741;28;20035;-74
2022/02/22 05:37:37;;;;;;;8.40;2.10;;;;;;;1.31;95.35;95579.50;5097460;28;20044;-74
2022/02/22 05:40:04;;;;;;;8.20;2.15;;;;;;;1.18;96.12;95596.72;5091511;28;20044;-74
2022/02/22 05:42:30;;;;;;;8.65;1.52;;;;;;;0.97;95.95;95595.22;5110554;28;20081;-74
2022/02/22 05:44:56;;;;;;;5.97;1.55;;;;;;;0.82;97.07;95587.72;5104999;28;20151;-74
2022/02/22 05:47:22;;;;;;;11.23;1.80;;;;;;;0.63;97.08;95593.75;5091892;28;20067;-74
2022/02/22 05:49:48;;;;;;;7.82;2.25;;;;;;;0.61;96.73;95586.19;5104483;28;20044;-73
2022/02/22 05:52:14;;;;;;;6.75;1.60;;;;;;;0.66;96.77;95588.16;5112194;28;20675;-73
2022/02/22 05:54:40;;;;;;;7.47;1.90;;;;;;;0.71;95.21;95577.22;5106765;27;20134;-73
2022/02/22 05:57:06;;;;;;;9.00;1.50;;;;;;;0.66;95.11;95590.75;5104715;28;20051;-72
2022/02/22 05:59:32;;;;;;;7.90;1.75;;;;;;;0.65;95.36;95602.13;5099494;28;20071;-73
2022/02/22 06:01:57;;;;;;;11.95;1.92;;;;;;;0.62;95.24;95597.38;5107164;28;20043;-73
2022/02/22 06:04:24;;;;;;;7.13;1.60;;;;;;;0.58;95.74;95593.59;5107921;28;20048;-73
2022/02/22 06:06:50;;;;;;;10.07;1.98;;;;;;;0.51;95.75;95599.56;5091271;28;20048;-73
2022/02/22 06:09:15;;;;;;;5.50;1.70;;;;;;;0.48;95.75;95599.97;5109767;28;20047;-73
2022/02/22 06:11:42;;;;;;;9.88;1.80;;;;;;;0.50;94.79;95605.75;5110457;28;20082;-73
2022/02/22 06:14:07;;;;;;;11.70;1.85;;;;;;;0.59;94.93;95608.91;5104450;27;20039;-74
2022/02/22 06:16:33;;;;;;;7.28;1.58;;;;;;;0.60;93.76;95620.06;5108372;28;20047;-73
2022/02/22 06:18:58;;;;;;;7.85;1.80;;;;;;;0.63;92.88;95619.66;5099098;27;20067;-73
2022/02/22 06:21:24;;;;;;;11.40;1.75;;;;;;;0.63;92.43;95630.00;5091121;28;20042;-73
2022/02/22 06:23:50;;;;;;;12.52;2.03;;;;;;;0.64;92.47;95636.78;5092253;28;20032;-74
2022/02/22 06:26:15;;;;;;;8.27;1.80;;;;;;;0.65;91.76;95643.56;5103558;27;20048;-73
2022/02/22 06:28:41;;;;;;;5.35;1.33;;;;;;;0.73;91.72;95651.09;5100013;28;20115;-70
2022/02/22 06:31:07;;;;;;;7.72;2.03;;;;;;;0.77;91.37;95661.88;5093741;28;20496;-71
2022/02/22 06:33:35;;;;;;;7.75;1.67;;;;;;;0.84;90.57;95663.44;5103027;28;20119;-74
2022/02/22 06:36:01;;;;;;;10.93;1.70;;;;;;;0.85;91.74;95665.03;5102624;28;20036;-73
2022/02/22 06:38:26;;;;;;;12.70;2.45;;;;;;;0.84;91.89;95663.44;5100130;28;20063;-73
2022/02/22 06:40:52;;;;;;;8.52;1.73;;;;;;;0.81;92.87;95663.84;5106689;28;20039;-75
2022/02/22 06:43:19;;;;;;;5.38;2.13;;;;;;;0.88;93.25;95678.56;5111199;28;20092;-75
2022/02/22 06:45:44;;;;;;;10.65;2.00;;;;;;;0.93;93.74;95676.97;5104212;28;20044;-74
2022/02/22 06:48:11;;;;;;;15.00;2.00;;;;;;;0.90;93.64;95682.56;5091120;28;20077;-75
2022/02/22 06:50:38;;;;;;;8.75;2.40;;;;;;;0.92;93.42;95679.75;5099625;28;20504;-76
2022/02/22 06:53:03;;;;;;;7.07;2.05;;;;;;;0.92;93.70;95687.53;5100975;27;20456;-75
2022/02/22 06:55:29;;;;;;;13.18;2.70;;;;;;;0.90;94.17;95694.72;5092841;28;20125;-76
2022/02/22 06:58:03;;;;;;;5.82;2.00;;;;;;;0.99;93.35;95696.06;5106452;28;20594;-74
2022/02/22 07:00:29;;;;;;;11.80;2.05;;;;;;;1.00;93.54;95697.69;5108816;28;20040;-74
2022/02/22 07:02:56;;;;;;;11.60;1.98;;;;;;;0.97;93.97;95718.81;5097304;28;20039;-73
2022/02/22 07:05:21;;;;;;;14.65;2.45;;;;;;;1.06;93.91;95717.59;5107154;28;20043;-75
2022/02/22 07:07:47;;;;;;;7.15;2.10;;;;;;;1.09;93.51;95727.53;5106224;28;20512;-73
2022/02/22 07:10:13;;;;;;;4.22;1.92;;;;;;;1.11;93.97;95730.75;5090061;28;20066;-73
2022/02/22 07:12:38;;;;;;;8.40;2.10;;;;;;;1.09;94.56;95737.91;5097320;27;20035;-74
2022/02/22 07:15:05;;;;;;;11.40;2.83;;;;;;;1.17;94.50;95742.88;5104083;28;20040;-71
2022/02/22 07:17:31;;;;;;;8.82;2.00;;;;;;;1.27;93.74;95739.09;5091619;28;20044;-72
2022/02/22 07:19:56;;;;;;;10.68;2.33;;;;;;;1.23;93.16;95748.25;5096661;27;20142;-71
2022/02/22 07:22:22;;;;;;;6.75;2.40;;;;;;;1.18;93.08;95744.47;5106642;27;20043;-73
2022/02/22 07:24:48;;;;;;;7.45;2.70;;;;;;;1.28;93.64;95740.66;5095865;27;20057;-71
2022/02/22 07:27:13;;;;;;;8.10;2.28;;;;;;;1.26;92.88;95753.03;5098903;28;20044;-73
2022/02/22 07:29:39;;;;;;;5.95;2.40;;;;;;;1.18;92.93;95767.81;5102433;28;20563;-76
2022/02/22 07:32:05;;;;;;;8.10;2.22;;;;;;;1.32;91.48;95767.78;5097168;28;20043;-78
2022/02/22 07:34:31;;;;;;;13.15;2.42;;;;;;;1.45;91.48;95762.56;5090798;28;20486;-76
2022/02/22 07:36:56;;;;;;;12.00;2.33;;;;;;;1.61;90.73;95774.28;5096821;28;20570;-73
2022/02/22 07:39:22;;;;;;;7.15;1.98;;;;;;;1.78;89.15;95777.19;5099838;28;20036;-73
2022/02/22 07:41:47;;;;;;;6.75;2.30;;;;;;;1.81;89.57;95787.16;5096007;28;20040;-74
2022/02/22 07:44:13;;;;;;;8.98;2.60;;;;;;;1.82;88.62;95777.56;5103754;28;20127;-72
2022/02/22 07:46:38;;;;;;;9.95;2.80;;;;;;;1.97;89.07;95785.06;5098317;28;20527;-73
2022/02/22 07:49:06;;;;;;;8.38;2.30;;;;;;;1.99;88.32;95788.25;5104327;28;20093;-72
2022/02/22 07:51:31;;;;;;;9.85;2.70;;;;;;;2.03;88.23;95805.03;5089355;28;20044;-72
2022/02/22 07:53:57;;;;;;;4.75;2.13;;;;;;;2.15;88.14;95792.94;5093713;28;20054;-73
2022/02/22 07:56:22;;;;;;;9.25;2.38;;;;;;;2.14;87.82;95806.97;5097821;28;20047;-73
2022/02/22 07:58:48;;;;;;;8.52;2.50;;;;;;;2.17;88.07;95801.34;5095271;28;20044;-73
2022/02/22 08:01:14;;;;;;;11.15;2.97;;;;;;;2.28;87.61;95805.06;5098752;28;20047;-74
2022/02/22 08:03:43;;;;;;;15.52;2.58;;;;;;;2.32;88.45;95802.84;5104369;28;20478;-75
2022/02/22 08:06:13;;;;;;;10.65;2.67;;;;;;;2.58;87.61;95820.84;5106874;27;20032;-77
2022/02/22 08:08:40;;;;;;;12.93;2.20;;;;;;;2.60;85.14;95821.44;5108039;28;20047;-74
2022/02/22 08:11:05;;;;;;;12.93;2.20;;;;;;;2.64;84.91;95832.19;5100280;28;20040;-75
2022/02/22 08:13:31;;;;;;;13.73;2.80;;;;;;;2.59;84.70;95827.66;5092136;28;20036;-73
2022/02/22 08:15:57;;;;;;;13.38;2.67;;;;;;;2.57;84.53;95832.28;5090126;28;20040;-73
2022/02/22 08:18:22;;;;;;;9.57;2.13;;;;;;;2.41;83.04;95837.94;5089603;28;20051;-75
2022/02/22 08:20:48;;;;;;;8.13;2.60;;;;;;;2.46;84.12;95840.72;5101203;28;20039;-73
2022/02/22 08:23:13;;;;;;;12.23;2.47;;;;;;;2.40;84.27;95844.19;5109371;28;20039;-73
2022/02/22 08:25:39;;;;;;;7.82;2.38;;;;;;;2.54;84.46;95847.47;5104621;28;20049;-74
2022/02/22 08:28:10;;;;;;;10.38;2.60;;;;;;;2.55;84.52;95843.88;5103599;28;20455;-74
2022/02/22 08:30:39;;;;;;;7.70;2.53;;;;;;;2.60;84.91;95852.63;5102277;28;20063;-74
2022/02/22 08:33:08;;;;;;;13.85;2.60;;;;;;;2.70;85.14;95856.56;5109344;28;20050;-74
2022/02/22 08:35:35;;;;;;;8.38;2.50;;;;;;;2.73;83.69;95848.34;5102068;28;20425;-74
2022/02/22 08:38:01;;;;;;;10.30;2.20;;;;;;;2.84;80.76;95863.25;5111762;28;20455;-74
2022/02/22 08:40:27;;;;;;;8.00;2.25;;;;;;;2.86;79.10;95866.44;5107541;28;20491;-74
2022/02/22 08:42:53;;;;;;;12.50;2.40;;;;;;;2.81;77.10;95857.69;5112403;28;20050;-73
2022/02/22 08:45:19;;;;;;;7.95;2.47;;;;;;;2.85;78.53;95879.66;5100773;28;20040;-73
2022/02/22 08:47:44;;;;;;;10.30;2.22;;;;;;;2.93;77.34;95871.56;5106872;28;20044;-73
2022/02/22 08:50:10;;;;;;;10.00;2.17;;;;;;;3.00;76.08;95874.13;5110392;28;20105;-73
2022/02/22 08:52:35;;;;;;;9.60;2.45;;;;;;;2.99;77.46;95875.94;5103976;28;20032;-73
2022/02/22 08:55:01;;;;;;;8.30;2.20;;;;;;;3.10;78.17;95882.25;5093124;28;20119;-74
2022/02/22 08:57:27;;;;;;;8.02;2.00;;;;;;;3.12;77.54;95875.84;5107587;28;20046;-74
2022/02/22 08:59:53;;;;;;;10.38;2.00;;;;;;;3.29;77.75;95889.09;5106401;27;20044;-73
2022/02/22 09:02:18;;;;;;;9.90;2.25;;;;;;;3.38;78.07;95881.03;5100587;28;20040;-74
2022/02/22 09:04:44;;;;;;;12.85;2.20;;;;;;;3.81;77.46;95894.00;5099834;28;20410;-73
2022/02/22 09:07:09;;;;;;;14.98;2.10;;;;;;;3.91;76.33;95903.91;5113594;27;20511;-74
2022/02/22 09:09:35;;;;;;;6.80;1.95;;;;;;;3.56;76.17;95901.88;5113587;28;20070;-75
2022/02/22 09:12:01;;;;;;;8.20;2.28;;;;;;;3.36;76.54;95911.66;5100702;28;20452;-75
2022/02/22 09:14:27;;;;;;;7.88;1.90;;;;;;;3.05;77.22;95939.31;5094240;28;20426;-79
2022/02/22 09:16:52;;;;;;;13.50;2.40;;;;;;;2.58;77.32;95932.56;5094213;28;20036;-75
2022/02/22 09:19:18;;;;;;;6.82;2.10;;;;;;;2.37;80.56;95922.50;5097794;27;20042;-75
2022/02/22 09:21:44;;;;;;;9.20;2.03;;;;;;;2.21;82.78;95937.56;5106765;28;20054;-73
2022/02/22 09:24:09;;;;;;;7.82;1.98;;;;;;;2.08;84.65;95953.16;5097708;28;20070;-73
2022/02/22 09:26:35;;;;;;;4.43;1.77;;;;;;;1.88;86.45;95948.84;5091979;28;20051;-73
2022/02/22 09:29:00;;;;;;;9.43;1.90;;;;;;;1.63;87.68;95961.63;5102223;28;20070;-73
2022/02/22 09:31:26;;;;;;;10.95;2.10;;;;;;;1.61;88.77;95960.25;5094499;27;20036;-73
2022/02/22 09:33:52;;;;;;;8.77;2.28;;;;;;;1.44;90.27;95952.88;5093577;27;20039;-73
2022/02/22 09:36:18;;;;;;;9.57;2.40;;;;;;;1.59;90.45;95965.63;5099129;28;20051;-73
2022/02/22 09:38:43;;;;;;;15.02;2.83;;;;;;;1.68;91.72;95969.63;5107839;28;20040;-72
2022/02/22 09:41:10;;;;;;;8.85;3.10;;;;;;;1.81;91.19;95973.19;5105078;28;20119;-73
2022/02/22 09:43:36;;;;;;;12.90;3.17;;;;;;;2.08;88.80;95984.31;5104442;27;20036;-72
2022/02/22 09:46:04;;;;;;;8.35;2.40;;;;;;;2.30;86.97;95976.25;5094718;28;20048;-73
2022/02/22 09:48:30;;;;;;;6.70;2.75;;;;;;;2.47;86.23;95977.41;5091702;28;20051;-73
2022/02/22 09:50:55;;;;;;;8.50;2.78;;;;;;;2.66;84.79;95985.31;5097138;28;20039;-72
2022/02/22 09:53:21;;;;;;;6.18;2.08;;;;;;;2.75;83.45;95989.28;5108580;28;20444;-72
2022/02/22 09:55:47;;;;;;;10.55;2.70;;;;;;;2.78;84.51;95991.47;5095955;28;20043;-72
2022/02/22 09:58:12;;;;;;;3.55;2.00;;;;;;;2.77;82.12;95984.66;5107970;28;20105;-71
2022/02/22 10:00:37;;;;;;;8.07;2.55;;;;;;;2.80;80.65;95980.84;5092332;28;20123;-73
2022/02/22 10:03:03;;;;;;;9.90;2.55;;;;;;;2.87;78.92;95992.78;5101595;28;20100;-71
2022/02/22 10:05:29;;;;;;;14.15;3.05;;;;;;;2.98;79.44;95987.97;5097209;28;20052;-71
2022/02/22 10:08:00;;;;;;;7.97;2.38;;;;;;;3.37;78.06;95988.69;5103813;28;20043;-71
2022/02/22 10:10:33;;;;;;;8.68;2.42;;;;;;;3.77;77.46;95996.19;5102014;28;20047;-72
2022/02/22 10:12:59;;;;;;;12.88;2.63;;;;;;;3.77;78.24;95990.97;5097994;28;20047;-72
2022/02/22 10:15:25;;;;;;;8.57;2.50;;;;;;;3.63;77.66;96000.69;5103811;28;20051;-72
2022/02/22 10:17:51;;;;;;;17.27;2.40;;;;;;;3.72;77.00;95988.22;5108735;27;20035;-71
2022/02/22 10:20:17;;;;;;;10.35;2.40;;;;;;;5.94;69.31;95987.75;5103091;28;20063;-72
2022/02/22 10:22:51;;;;;;;5.93;2.08;;;;;;;6.52;65.25;95990.53;5103591;28;20546;-72
2022/02/22 10:25:18;;;;;;;10.00;2.30;;;;;;;6.19;63.59;95978.91;5098420;28;20079;-73
2022/02/22 10:27:47;;;;;;;8.73;2.25;;;;;;;5.72;64.79;95983.09;5093637;28;20811;-73
2022/02/22 10:30:38;;;;;;;8.98;2.40;;;;;;;6.50;62.69;95996.00;5104107;28;20060;-73
2022/02/22 10:33:25;;;;;;;10.30;2.10;;;;;;;5.94;62.59;95992.97;5091033;28;20036;-73
2022/02/22 10:36:04;;;;;;;7.97;2.35;;;;;;;6.13;63.33;95995.50;5090598;28;20425;-73
2022/02/22 10:38:35;;;;;;;10.98;2.33;;;;;;;5.89;59.17;96000.72;5091176;28;20047;-72
2022/02/22 10:41:02;;;;;;;10.23;2.10;;;;;;;5.63;62.80;95997.53;5098609;28;20078;-72
2022/02/22 10:43:32;;;;;;;16.27;1.95;;;;;;;5.70;63.62;96003.44;5102597;28;20700;-72
2022/02/22 10:46:00;;;;;;;8.32;2.08;;;;;;;5.34;63.41;96010.41;5098321;27;20080;-72
2022/02/22 10:48:34;;;;;;;5.20;1.80;;;;;;;4.83;65.91;96014.31;5108253;28;20070;-73
2022/02/22 10:51:04;;;;;;;11.90;2.50;;;;;;;6.60;63.52;96005.88;5109863;28;20089;-74
2022/02/22 10:53:36;;;;;;;6.32;2.03;;;;;;;6.93;58.01;95988.72;5101757;28;20032;-74
2022/02/22 10:56:05;;;;;;;6.65;1.85;;;;;;;6.86;59.65;95999.31;5103864;28;20605;-74
2022/02/22 10:58:31;;;;;;;10.30;2.42;;;;;;;8.31;57.72;96007.63;5099457;27;20043;-75
2022/02/22 11:00:57;;;;;;;10.13;2.10;;;;;;;6.80;59.32;95994.25;5091130;28;20052;-74
2022/02/22 11:03:23;;;;;;;6.32;1.90;;;;;;;6.05;62.21;95997.44;5095796;28;20101;-74
2022/02/22 11:05:49;;;;;;;10.20;2.00;;;;;;;8.05;58.91;95988.94;5110662;28;20040;-74
2022/02/22 11:08:23;;;;;;;8.93;2.00;;;;;;;8.68;54.45;96001.84;5107884;28;20052;-73
2022/02/22 11:11:00;;;;;;;9.98;2.20;;;;;;;9.63;53.41;95990.16;5102106;28;20032;-78
2022/02/22 11:13:27;;;;;;;10.13;1.95;;;;;;;10.36;51.76;95982.47;5093751;28;20035;-75
2022/02/22 11:15:53;;;;;;;9.18;2.03;;;;;;;11.31;50.54;95974.59;5098759;28;20406;-77
2022/02/22 11:18:22;;;;;;;4.28;1.95;;;;;;;9.80;51.29;95975.03;5112261;28;20036;-76
2022/02/22 11:20:48;;;;;;;8.43;2.40;;;;;;;10.55;52.82;95969.66;5090216;28;20416;-73
2022/02/22 11:23:29;;;;;;;5.55;1.92;;;;;;;11.51;48.18;95969.34;5103214;28;20047;-74
2022/02/22 11:26:18;;;;;;;6.38;1.98;;;;;;;11.34;46.29;95974.06;5089529;28;20052;-74
2022/02/22 11:28:52;;;;;;;7.97;2.85;;;;;;;8.23;53.74;95979.19;5095152;28;20127;-76
2022/02/22 11:31:21;;;;;;;11.10;2.63;;;;;;;7.32;54.41;95991.50;5108164;28;20131;-73
2022/02/22 11:33:50;;;;;;;6.70;2.08;;;;;;;8.80;52.28;95972.84;5091849;27;20436;-74
2022/02/22 11:36:27;;;;;;;5.25;1.90;;;;;;;8.84;52.30;95979.97;5089576;28;20044;-74